»·PEaware :: N707CP KMFR-KBOI

N707CP :: KMFR-KBOI

FLIGHT INFORMATION

Flight Status: Arrived
Operator: Privately registered:
United States
More flights under this callsign
Pilot: Chase W. (8260)
Aircraft: ECLIPSE 500
(EA50)
More flights by this aircraft type
Origin: KMFR Rogue Valley Intl-Medford
United States
Destination: KBOI Boise Air Terminal/Gowen
United States
More flights between these airports :: More routes between these airports
Route: JKSN1 OED V122 LMT V122 LKV V357 ILR V330 BOI
File this flight plan on PilotEdge
Remarks:
Altitude:
(Current/Filed)
25,000ft
Speed:
(Current/Filed)
250kts
Departed: 15-Jan-18 03:19 PM
Arrived: 15-Jan-18 04:42 PM
Distance/Time
Traveled:
300nm/1:23
Distance/Time
To Go:
Arrived

Flight Plot

Page will automatically refresh every two minutes.

Flight plan parsing failed; only flown route is shown


Map Options




Map Legend


Flown Route
Filed Route
Departure Airport
Arrival Airport
Navaid (VOR, NDB)
Fix

Horizontal Profiles

Position Reports

Time Latitude Longitude Heading Altitude Ground
Speed
15-Jan-18 15:12 42.375262 -122.877317 292 1336ft 0kts
15-Jan-18 15:13 42.375262 -122.877317 292 1336ft 0kts
15-Jan-18 15:14 42.375262 -122.877317 292 1336ft 0kts
15-Jan-18 15:15 42.375262 -122.877317 292 1336ft 0kts
15-Jan-18 15:16 42.375262 -122.877317 292 1336ft 0kts
15-Jan-18 15:17 42.375262 -122.877317 292 1336ft 0kts
15-Jan-18 15:18 42.375262 -122.877317 292 1336ft 0kts
15-Jan-18 15:19 42.375262 -122.877317 292 1336ft 0kts
15-Jan-18 15:20 42.375264 -122.877322 292 1336ft 0kts
15-Jan-18 15:21 42.375863 -122.878163 2 1336ft 4kts
15-Jan-18 15:22 42.378184 -122.876582 337 1336ft 24kts
15-Jan-18 15:23 42.384520 -122.879891 337 1336ft 25kts
15-Jan-18 15:24 42.385717 -122.880271 40 1336ft 0kts
15-Jan-18 15:25 42.383081 -122.877558 160 1336ft 77kts
15-Jan-18 15:26 42.350755 -122.865000 194 2220ft 185kts
15-Jan-18 15:27 42.341869 -122.872990 236 2939ft 174kts
15-Jan-18 15:28 42.353624 -122.909874 336 4089ft 198kts
15-Jan-18 15:29 42.397563 -122.933984 336 4744ft 233kts
15-Jan-18 15:30 42.444830 -122.930603 11 7193ft 215kts
15-Jan-18 15:31 42.464804 -122.886265 116 9088ft 220kts
15-Jan-18 15:32 42.445413 -122.826750 125 11603ft 186kts
15-Jan-18 15:33 42.431820 -122.789035 126 12874ft 189kts
15-Jan-18 15:34 42.421806 -122.761952 126 13711ft 192kts
15-Jan-18 15:35 42.412327 -122.736498 127 14468ft 195kts
15-Jan-18 15:36 42.402783 -122.711032 127 15191ft 198kts
15-Jan-18 15:37 42.393541 -122.686471 127 15859ft 200kts
15-Jan-18 15:38 42.373176 -122.634743 116 17124ft 207kts
15-Jan-18 15:39 42.348193 -122.567810 116 18660ft 212kts
15-Jan-18 15:40 42.322229 -122.499258 116 20084ft 217kts
15-Jan-18 15:41 42.295426 -122.429047 116 21406ft 222kts
15-Jan-18 15:42 42.267830 -122.357093 117 22636ft 226kts
15-Jan-18 15:43 42.241259 -122.286011 105 23729ft 231kts
15-Jan-18 15:44 42.227994 -122.204608 102 24780ft 235kts
15-Jan-18 15:45 42.214319 -122.117838 102 25005ft 269kts
15-Jan-18 15:46 42.198959 -122.019492 101 25002ft 297kts
15-Jan-18 15:47 42.182832 -121.916261 101 25001ft 311kts
15-Jan-18 15:48 42.165883 -121.808282 101 25000ft 319kts
15-Jan-18 15:49 42.164317 -121.700741 71 25003ft 322kts
15-Jan-18 15:50 42.191498 -121.596190 69 25000ft 325kts
15-Jan-18 15:51 42.220275 -121.491992 69 25000ft 326kts
15-Jan-18 15:52 42.249560 -121.387390 68 25000ft 326kts
15-Jan-18 15:53 42.277940 -121.286117 69 25000ft 327kts
15-Jan-18 15:54 42.307158 -121.181576 69 25000ft 327kts
15-Jan-18 15:55 42.336489 -121.076232 69 25000ft 327kts
15-Jan-18 15:56 42.365655 -120.971051 69 25000ft 327kts
15-Jan-18 15:57 42.394476 -120.866677 69 25000ft 327kts
15-Jan-18 15:58 42.423282 -120.761917 69 25000ft 327kts
15-Jan-18 15:59 42.451962 -120.657176 69 25000ft 327kts
15-Jan-18 16:00 42.480906 -120.551013 69 25000ft 327kts
15-Jan-18 16:01 42.529235 -120.459838 46 25000ft 327kts
15-Jan-18 16:02 42.588958 -120.375591 45 25000ft 327kts
15-Jan-18 16:03 42.649194 -120.291868 45 25000ft 327kts
15-Jan-18 16:04 42.710208 -120.207215 45 25000ft 327kts
15-Jan-18 16:05 42.771630 -120.121847 45 25000ft 327kts
15-Jan-18 16:06 42.833178 -120.036071 45 25000ft 327kts
15-Jan-18 16:07 42.894796 -119.949944 45 25000ft 327kts
15-Jan-18 16:08 42.956327 -119.863677 45 25000ft 327kts
15-Jan-18 16:09 43.016978 -119.778386 45 25000ft 327kts
15-Jan-18 16:10 43.077508 -119.693008 45 25000ft 328kts
15-Jan-18 16:11 43.134801 -119.611962 45 24999ft 328kts
15-Jan-18 16:12 43.194690 -119.526993 45 25000ft 328kts
15-Jan-18 16:13 43.253620 -119.443133 45 25000ft 328kts
15-Jan-18 16:14 43.312524 -119.359060 45 25000ft 328kts
15-Jan-18 16:15 43.370192 -119.276502 46 25000ft 328kts
15-Jan-18 16:16 43.426291 -119.195957 46 25000ft 328kts
15-Jan-18 16:17 43.481160 -119.116951 46 25000ft 328kts
15-Jan-18 16:18 43.539199 -119.033137 46 25000ft 328kts
15-Jan-18 16:19 43.585917 -118.947946 81 24996ft 327kts
15-Jan-18 16:20 43.590923 -118.825093 88 24793ft 327kts
15-Jan-18 16:21 43.591743 -118.703665 89 24135ft 324kts
15-Jan-18 16:22 43.591465 -118.584932 90 23507ft 320kts
15-Jan-18 16:23 43.590818 -118.467478 90 22848ft 317kts
15-Jan-18 16:24 43.590001 -118.351899 90 22251ft 314kts
15-Jan-18 16:25 43.589102 -118.242357 90 21732ft 311kts
15-Jan-18 16:26 43.588012 -118.124445 90 21225ft 309kts
15-Jan-18 16:27 43.586815 -118.008066 90 20774ft 307kts
15-Jan-18 16:28 43.585502 -117.891874 90 20368ft 305kts
15-Jan-18 16:29 43.584078 -117.776246 90 20005ft 303kts
15-Jan-18 16:30 43.582627 -117.667144 90 19697ft 301kts
15-Jan-18 16:31 43.581099 -117.559826 90 18906ft 299kts
15-Jan-18 16:32 43.579462 -117.451564 90 18248ft 295kts
15-Jan-18 16:33 43.577771 -117.346702 91 17643ft 292kts
15-Jan-18 16:34 43.576056 -117.246369 91 17117ft 290kts
15-Jan-18 16:35 43.574210 -117.142933 91 16622ft 287kts
15-Jan-18 16:36 43.585419 -117.041693 73 15294ft 282kts
15-Jan-18 16:37 43.605966 -116.947075 73 14112ft 276kts
15-Jan-18 16:38 43.626430 -116.852936 73 13237ft 273kts
15-Jan-18 16:39 43.646385 -116.761228 73 12456ft 270kts
15-Jan-18 16:40 43.665848 -116.671874 73 11758ft 267kts
15-Jan-18 16:41 43.669486 -116.584935 111 10101ft 222kts
15-Jan-18 16:42 43.649550 -116.512425 109 8441ft 215kts
15-Jan-18 16:43 43.632525 -116.446611 109 6933ft 204kts
15-Jan-18 16:44 43.617316 -116.390364 110 5188ft 187kts
15-Jan-18 16:45 43.602375 -116.339213 114 4216ft 178kts
15-Jan-18 16:46 43.586964 -116.292716 114 3812ft 134kts
15-Jan-18 16:47 43.574817 -116.256416 115 3198ft 114kts
15-Jan-18 16:48 43.566464 -116.232538 209 2874ft 9kts

Navigation Log

Ident Type
Flight plan parsing failed, navigation log unavailable